EVLA/LPX METAR and TAF weather

Enter ICAO airport designator
Station Type Date Time Source
EVLA METAR 2022/06/28 14:50 UTC NOAA

EVLA 281450Z AUTO VRB06KT CAVOK 29/19 Q1016


Station Type Date Time Source
EVLA Decoded METAR 2022/06/28 14:50 UTC NOAA

Liepaja International Airport, Latvia (EVLA) 56-31N 021-05E
Jun 28, 2022 - 10:50 AM EDT / 2022.06.28 1450 UTC
Wind: Variable at 7 MPH (6 KT):0
Visibility: greater than 7 mile(s):0
Temperature: 84 F (29 C)
Dew Point: 66 F (19 C)
Relative Humidity: 54%
Pressure (altimeter): 30.00 in. Hg (1016 hPa)
ob: EVLA 281450Z AUTO VRB06KT CAVOK 29/19 Q1016
cycle: 15

Station Type Date Time Source
EVLA TAF 2022/06/28 15:07 UTC NOAA

TAF EVLA 281405Z 2815/2915 22007KT 9999 SCT045
TEMPO 2815/2910 SCT040CB PROB40
TEMPO 2815/2818 TSRA PROB40
TEMPO 2906/2910 TSRA

Example: see airport list